createdAt,value
2023-03-11T00:01:11.550Z,68.09
2023-03-11T00:04:12.613Z,68.18
2023-03-11T00:07:43.895Z,68.35
2023-03-11T00:14:55.587Z,67.37
2023-03-11T00:28:49.175Z,67.48
2023-03-11T00:32:01.654Z,68.63
2023-03-11T00:35:53.538Z,69.66
2023-03-11T00:39:31.235Z,70.85
2023-03-11T00:42:58.880Z,72.85
2023-03-11T00:46:45.459Z,73.81
2023-03-11T00:50:24.154Z,75.10
2023-03-11T00:53:38.816Z,75.55
2023-03-11T00:57:19.998Z,74.77
2023-03-11T01:00:52.611Z,73.72
2023-03-11T01:04:14.411Z,73.84
2023-03-11T01:07:34.329Z,73.90
2023-03-11T01:11:05.348Z,74.09
2023-03-11T01:14:51.396Z,73.58
2023-03-11T01:18:22.244Z,72.30
2023-03-11T01:25:21.107Z,70.95
2023-03-11T01:28:43.516Z,70.33
2023-03-11T01:31:54.255Z,69.71
2023-03-11T01:34:47.548Z,68.94
2023-03-11T01:37:19.800Z,68.62
2023-03-11T01:40:19.964Z,68.44
2023-03-11T01:44:25.178Z,68.27
2023-03-11T01:47:12.316Z,68.65
2023-03-11T01:50:26.008Z,68.82
2023-03-11T01:53:12.192Z,69.45
2023-03-11T01:56:25.392Z,70.65
2023-03-11T02:00:04.245Z,71.70
2023-03-11T02:03:47.751Z,72.39
2023-03-11T02:06:57.992Z,72.93
2023-03-11T02:10:05.660Z,73.53
2023-03-11T02:13:03.142Z,74.04
2023-03-11T02:16:09.523Z,74.07
2023-03-11T02:19:04.137Z,74.62
2023-03-11T02:22:44.325Z,74.83
2023-03-11T02:25:42.878Z,74.32
2023-03-11T02:29:02.842Z,73.98
2023-03-11T02:31:58.281Z,72.98
2023-03-11T02:35:12.000Z,72.90
2023-03-11T02:38:13.211Z,72.68
2023-03-11T02:41:23.707Z,72.04
2023-03-11T02:43:50.608Z,71.57
2023-03-11T02:46:47.547Z,71.25
2023-03-11T02:49:34.162Z,70.80
2023-03-11T02:52:25.816Z,70.67
2023-03-11T02:55:17.473Z,70.67
2023-03-11T02:57:57.202Z,70.38
2023-03-11T03:01:07.106Z,70.41
2023-03-11T03:03:40.434Z,70.20
2023-03-11T03:06:13.035Z,70.31
2023-03-11T03:08:40.202Z,70.38
2023-03-11T03:11:20.635Z,70.53
2023-03-11T03:14:08.523Z,70.91
2023-03-11T03:16:58.541Z,70.87
2023-03-11T03:19:48.527Z,70.91
2023-03-11T03:22:35.509Z,70.44
2023-03-11T03:25:25.801Z,70.03
2023-03-11T03:28:04.195Z,69.61
2023-03-11T03:30:50.652Z,69.44
2023-03-11T03:33:21.353Z,69.16
2023-03-11T03:35:53.858Z,69.29
2023-03-11T03:38:44.993Z,69.19
2023-03-11T03:42:05.745Z,69.45
2023-03-11T03:44:52.677Z,69.81
2023-03-11T03:47:40.281Z,70.27
2023-03-11T03:50:14.045Z,70.21
2023-03-11T03:53:06.878Z,69.97
2023-03-11T03:55:59.505Z,69.74
2023-03-11T03:58:47.077Z,69.77
2023-03-11T04:01:34.238Z,70.00
2023-03-11T04:04:30.247Z,69.87
2023-03-11T04:07:11.072Z,70.10
2023-03-11T04:10:18.589Z,70.27
2023-03-11T04:13:19.236Z,70.58
2023-03-11T04:15:46.885Z,71.00
2023-03-11T04:18:22.131Z,71.72
2023-03-11T04:21:30.305Z,71.71
2023-03-11T04:23:59.851Z,71.97
2023-03-11T04:27:10.619Z,72.19
2023-03-11T04:29:49.620Z,72.12
2023-03-11T04:32:42.847Z,72.25
2023-03-11T04:35:27.184Z,72.22
2023-03-11T04:38:45.011Z,71.79
2023-03-11T04:41:54.995Z,72.01
2023-03-11T04:44:34.162Z,72.37
2023-03-11T04:47:42.294Z,73.07
2023-03-11T04:51:10.635Z,74.79
2023-03-11T04:54:46.062Z,77.63
2023-03-11T04:58:33.795Z,77.36
2023-03-11T05:02:12.916Z,78.17
2023-03-11T05:05:56.967Z,78.64
2023-03-11T05:09:44.566Z,81.48
2023-03-11T05:13:12.002Z,82.67
2023-03-11T05:16:22.898Z,84.34
2023-03-11T05:20:19.994Z,84.49
2023-03-11T05:23:52.872Z,85.37
2023-03-11T05:26:51.850Z,85.43
2023-03-11T05:30:33.090Z,85.15
2023-03-11T05:34:08.168Z,85.25
2023-03-11T05:37:39.610Z,85.34
2023-03-11T05:41:02.684Z,84.56
2023-03-11T05:44:21.924Z,84.10
2023-03-11T05:47:12.805Z,83.14
2023-03-11T05:49:46.536Z,83.23
2023-03-11T05:52:57.273Z,82.81
2023-03-11T05:55:53.608Z,82.55
2023-03-11T05:58:21.255Z,82.14
2023-03-11T06:01:47.286Z,81.67
2023-03-11T06:05:07.366Z,80.85
2023-03-11T06:08:39.112Z,80.51
2023-03-11T06:11:37.825Z,80.12
2023-03-11T06:14:28.172Z,79.00
2023-03-11T06:17:19.235Z,78.80
2023-03-11T06:20:07.196Z,78.77
2023-03-11T06:22:57.184Z,78.33
2023-03-11T06:25:47.310Z,77.96
2023-03-11T06:28:17.059Z,77.58
2023-03-11T06:31:30.851Z,77.66
2023-03-11T06:34:33.848Z,77.35
2023-03-11T06:37:52.522Z,77.19
2023-03-11T06:40:40.288Z,76.79
2023-03-11T06:43:07.285Z,76.85
2023-03-11T06:45:54.535Z,76.55
2023-03-11T06:49:32.174Z,76.73
2023-03-11T06:52:23.904Z,77.16
2023-03-11T06:55:13.524Z,77.63
2023-03-11T06:58:01.190Z,78.01
2023-03-11T07:00:55.300Z,78.12
2023-03-11T07:03:48.432Z,78.69
2023-03-11T07:06:35.851Z,78.83
2023-03-11T07:09:39.285Z,79.38
2023-03-11T07:13:10.378Z,80.15
2023-03-11T07:16:45.234Z,80.35
2023-03-11T07:56:24.246Z,84.78
2023-03-11T07:59:32.066Z,83.96
2023-03-11T08:02:39.323Z,84.44
2023-03-11T08:06:20.285Z,84.37
2023-03-11T08:09:59.516Z,84.88
2023-03-11T08:13:07.006Z,84.50
2023-03-11T08:16:46.296Z,84.56
2023-03-11T08:20:27.458Z,84.45
2023-03-11T08:23:44.687Z,84.16
2023-03-11T08:27:05.719Z,84.70
2023-03-11T08:30:53.814Z,84.30
2023-03-11T08:34:38.979Z,84.46
2023-03-11T08:37:36.659Z,84.12
2023-03-11T08:41:04.594Z,84.42
2023-03-11T08:47:51.230Z,84.43
2023-03-11T08:51:03.051Z,84.42
2023-03-11T08:54:19.024Z,84.39
2023-03-11T08:57:37.690Z,85.16
2023-03-11T09:01:19.792Z,84.77
2023-03-11T09:04:51.329Z,84.81
2023-03-11T09:08:20.256Z,85.42
2023-03-11T09:12:09.448Z,85.46
2023-03-11T09:15:50.347Z,85.26
2023-03-11T09:19:19.305Z,85.54
2023-03-11T09:23:08.833Z,85.44
2023-03-11T09:26:36.492Z,85.53
2023-03-11T09:30:17.969Z,85.72
2023-03-11T09:33:49.885Z,85.41
2023-03-11T10:03:25.165Z,86.21
2023-03-11T10:07:23.570Z,86.52
2023-03-11T10:10:24.209Z,86.10
2023-03-11T10:14:25.426Z,86.92
2023-03-11T10:17:38.654Z,86.40
2023-03-11T10:21:27.701Z,86.81
2023-03-11T10:24:54.351Z,87.25
2023-03-11T10:28:12.666Z,87.84
2023-03-11T10:31:25.543Z,87.49
2023-03-11T10:35:18.412Z,87.78
2023-03-11T10:38:39.391Z,87.87
2023-03-11T10:42:02.709Z,87.83
2023-03-11T10:44:40.316Z,87.67
2023-03-11T10:47:32.327Z,88.13
2023-03-11T10:50:36.419Z,88.35
2023-03-11T10:53:10.616Z,88.13
2023-03-11T10:55:52.510Z,88.36
2023-03-11T10:58:31.567Z,88.92
2023-03-11T11:01:32.133Z,88.67
2023-03-11T11:04:05.089Z,88.51
2023-03-11T11:06:37.369Z,88.82
2023-03-11T11:09:36.208Z,88.60
2023-03-11T11:12:34.351Z,87.80
2023-03-11T11:15:47.525Z,88.56
2023-03-11T11:19:05.207Z,88.18
2023-03-11T11:21:53.569Z,88.35
2023-03-11T11:24:27.348Z,88.73
2023-03-11T11:27:51.448Z,88.84
2023-03-11T11:30:50.935Z,88.34
2023-03-11T11:34:13.517Z,88.66
2023-03-11T11:37:14.381Z,88.28
2023-03-11T11:40:22.208Z,88.18
2023-03-11T11:43:47.916Z,88.36
2023-03-11T12:02:31.970Z,88.58
2023-03-11T12:05:58.187Z,88.72
2023-03-11T12:09:53.301Z,88.16
2023-03-11T12:13:43.237Z,88.11
2023-03-11T12:17:18.289Z,88.00
2023-03-11T12:21:03.501Z,87.65
2023-03-11T12:23:55.203Z,87.39
2023-03-11T12:27:29.547Z,87.55
2023-03-11T12:30:40.402Z,87.68
2023-03-11T12:49:00.469Z,86.95
2023-03-11T12:52:31.521Z,87.15
2023-03-11T12:55:11.452Z,87.05
2023-03-11T12:58:38.169Z,87.15
2023-03-11T13:02:00.049Z,87.09
2023-03-11T13:05:01.155Z,87.11
2023-03-11T13:07:51.815Z,86.91
2023-03-11T13:10:43.103Z,86.92
2023-03-11T13:13:45.945Z,87.14
2023-03-11T13:16:24.294Z,86.99
2023-03-11T13:19:34.164Z,86.88
2023-03-11T13:22:43.882Z,86.53
2023-03-11T13:25:42.238Z,86.08
2023-03-11T13:29:06.564Z,85.76
2023-03-11T13:32:19.534Z,85.63
2023-03-11T13:35:01.995Z,85.39
2023-03-11T13:38:35.555Z,85.20
2023-03-11T13:41:13.785Z,84.98
2023-03-11T13:44:07.328Z,85.07
2023-03-11T13:46:42.334Z,85.05
2023-03-11T13:49:56.723Z,85.36
2023-03-11T13:52:45.019Z,85.90
2023-03-11T13:56:16.058Z,86.53
2023-03-11T13:59:18.240Z,86.55
2023-03-11T14:02:58.229Z,86.69
2023-03-11T14:06:01.838Z,86.97
2023-03-11T14:09:46.440Z,87.16
2023-03-11T14:13:26.184Z,87.10
2023-03-11T14:16:34.643Z,86.96
2023-03-11T14:19:43.318Z,86.77
2023-03-11T14:26:01.649Z,86.16
2023-03-11T14:29:25.024Z,86.00
2023-03-11T14:32:23.922Z,86.00
2023-03-11T14:38:50.578Z,85.57
2023-03-11T14:42:50.899Z,85.52
2023-03-11T15:01:47.814Z,84.40
2023-03-11T15:10:25.452Z,83.35
2023-03-11T15:16:54.354Z,82.88
2023-03-11T15:19:45.522Z,82.94
2023-03-11T15:22:41.004Z,82.99
2023-03-11T15:26:10.336Z,82.86
2023-03-11T15:28:52.609Z,82.79
2023-03-11T15:31:42.999Z,82.81
2023-03-11T15:34:35.411Z,83.00
2023-03-11T15:37:45.915Z,83.18
2023-03-11T15:40:45.274Z,83.51
2023-03-11T15:44:28.622Z,83.26
2023-03-11T15:47:55.373Z,84.14
2023-03-11T15:51:47.602Z,85.31
2023-03-11T15:57:40.450Z,85.41
2023-03-11T16:20:38.529Z,85.37
2023-03-11T16:23:51.924Z,85.12
2023-03-11T16:26:23.245Z,85.10
2023-03-11T16:29:16.580Z,85.03
2023-03-11T16:31:57.796Z,84.60
2023-03-11T16:34:46.584Z,84.68
2023-03-11T16:37:58.325Z,84.62
2023-03-11T16:40:28.468Z,84.70
2023-03-11T16:43:34.097Z,84.46
2023-03-11T16:46:54.469Z,84.47
2023-03-11T16:49:55.603Z,84.69
2023-03-11T16:52:33.001Z,84.45
2023-03-11T16:55:06.771Z,84.79
2023-03-11T16:57:57.997Z,84.85
2023-03-11T17:00:27.294Z,84.85
2023-03-11T17:02:55.444Z,85.16
2023-03-11T17:05:38.357Z,85.42
2023-03-11T17:08:09.906Z,85.13
2023-03-11T17:10:46.627Z,85.17
2023-03-11T17:13:35.068Z,84.88
2023-03-11T17:16:08.958Z,84.93
2023-03-11T17:18:40.156Z,84.85
2023-03-11T17:21:10.566Z,84.91
2023-03-11T17:23:44.816Z,84.67
2023-03-11T17:26:18.283Z,84.44
2023-03-11T17:28:46.836Z,84.34
2023-03-11T17:31:16.508Z,84.32
2023-03-11T17:33:46.157Z,84.10
2023-03-11T17:36:16.683Z,83.97
2023-03-11T17:39:05.381Z,83.91
2023-03-11T17:41:36.960Z,83.86
2023-03-11T17:44:05.527Z,83.72
2023-03-11T17:46:36.429Z,83.65
2023-03-11T17:49:12.722Z,83.70
2023-03-11T17:52:00.906Z,83.60
2023-03-11T17:54:32.000Z,83.75
2023-03-11T17:57:02.994Z,83.68
2023-03-11T17:59:31.350Z,83.68
2023-03-11T18:01:59.569Z,83.64
2023-03-11T18:04:31.770Z,83.88
2023-03-11T18:07:23.772Z,83.92
2023-03-11T18:09:55.301Z,83.72
2023-03-11T18:12:24.480Z,83.45
2023-03-11T18:14:52.533Z,83.42
2023-03-11T18:17:23.115Z,83.38
2023-03-11T18:19:51.133Z,83.36
2023-03-11T18:22:19.441Z,83.35
2023-03-11T18:25:00.259Z,83.14
2023-03-11T18:27:28.679Z,82.87
2023-03-11T18:29:57.087Z,82.89
2023-03-11T18:32:25.664Z,82.85
2023-03-11T18:34:53.821Z,82.56
2023-03-11T18:37:21.940Z,82.22
2023-03-11T18:39:50.473Z,82.16
2023-03-11T18:42:18.679Z,81.87
2023-03-11T18:44:47.019Z,81.58
2023-03-11T18:47:15.377Z,81.67
2023-03-11T18:49:43.780Z,81.75
2023-03-11T18:52:12.359Z,81.47
2023-03-11T18:55:19.519Z,81.29
2023-03-11T18:57:47.873Z,81.27
2023-03-11T19:00:22.737Z,81.44
2023-03-11T19:03:00.326Z,81.34
2023-03-11T19:05:50.794Z,81.37
2023-03-11T19:08:22.388Z,81.79
2023-03-11T19:10:50.977Z,82.04
2023-03-11T19:13:22.281Z,82.22
2023-03-11T19:15:53.847Z,82.46
2023-03-11T19:18:24.805Z,82.60
2023-03-11T19:20:58.734Z,82.83
2023-03-11T19:23:30.198Z,82.88
2023-03-11T19:26:18.832Z,83.00
2023-03-11T19:28:47.545Z,83.11
2023-03-11T19:31:19.384Z,83.14
2023-03-11T19:33:50.208Z,83.04
2023-03-11T19:36:18.592Z,82.98
2023-03-11T19:38:47.830Z,83.08
2023-03-11T19:41:22.334Z,83.17
2023-03-11T19:43:50.682Z,83.09
2023-03-11T19:46:23.094Z,83.11
2023-03-11T19:48:51.300Z,83.14
2023-03-11T19:51:19.566Z,83.13
2023-03-11T19:53:47.991Z,83.05
2023-03-11T19:56:16.202Z,83.02
2023-03-11T19:58:45.470Z,82.87
2023-03-11T20:01:23.036Z,82.93
2023-03-11T20:03:52.158Z,82.93
2023-03-11T20:06:22.264Z,82.81
2023-03-11T20:09:01.720Z,82.80
2023-03-11T20:11:29.905Z,82.94
2023-03-11T20:13:58.197Z,83.00
2023-03-11T20:16:26.531Z,83.00
2023-03-11T20:18:58.720Z,82.81
2023-03-11T20:21:27.526Z,82.57
2023-03-11T20:23:56.844Z,82.49
2023-03-11T20:26:26.602Z,82.29
2023-03-11T20:28:56.907Z,82.17
2023-03-11T20:31:27.064Z,82.09
2023-03-11T20:33:56.408Z,81.83
2023-03-11T20:36:36.556Z,81.63
2023-03-11T20:39:28.177Z,81.59
2023-03-11T20:41:56.201Z,81.35
2023-03-11T20:44:24.526Z,81.24
2023-03-11T20:46:55.650Z,81.10
2023-03-11T20:49:24.234Z,81.12
2023-03-11T20:52:25.416Z,81.14
2023-03-11T20:55:10.492Z,81.21
2023-03-11T20:57:45.174Z,81.40
2023-03-11T21:00:14.161Z,81.56
2023-03-11T21:02:43.315Z,81.77
2023-03-11T21:05:35.660Z,81.93
2023-03-11T21:08:06.734Z,82.05
2023-03-11T21:10:58.102Z,82.18
2023-03-11T21:13:32.581Z,82.39
2023-03-11T21:16:01.317Z,82.59
2023-03-11T21:18:29.664Z,82.76
2023-03-11T21:21:08.994Z,82.97
2023-03-11T21:23:43.699Z,83.15
2023-03-11T21:26:14.933Z,83.26
2023-03-11T21:28:46.781Z,83.57
2023-03-11T21:31:42.107Z,83.79
2023-03-11T21:34:11.938Z,84.03
2023-03-11T21:36:48.642Z,84.26
2023-03-11T21:39:21.788Z,84.32
2023-03-11T21:41:51.053Z,84.72
2023-03-11T21:44:29.871Z,85.07
2023-03-11T21:46:58.637Z,85.00
2023-03-11T21:49:26.879Z,84.85
2023-03-11T21:51:55.047Z,84.59
2023-03-11T21:54:26.548Z,84.30
2023-03-11T21:57:02.460Z,84.11
2023-03-11T21:59:34.165Z,83.92
2023-03-11T22:02:07.781Z,83.77
2023-03-11T22:04:36.473Z,83.60
2023-03-11T22:07:05.026Z,83.45
2023-03-11T22:10:16.083Z,83.31
2023-03-11T22:13:08.005Z,83.11
2023-03-11T22:15:58.832Z,82.68
2023-03-11T22:18:50.395Z,82.36
2023-03-11T22:21:21.153Z,82.32
2023-03-11T22:24:11.771Z,82.56
2023-03-11T22:26:43.259Z,82.63
2023-03-11T22:29:51.874Z,82.67
2023-03-11T22:32:26.991Z,83.11
2023-03-11T22:35:15.882Z,83.45
2023-03-11T22:37:51.477Z,83.77
2023-03-11T22:40:26.398Z,83.84
2023-03-11T22:43:00.734Z,83.62
2023-03-11T22:45:29.039Z,83.48
2023-03-11T22:48:30.130Z,83.82
2023-03-11T22:51:10.549Z,83.69
2023-03-11T22:54:06.064Z,83.28
2023-03-11T22:57:14.860Z,83.42
2023-03-11T22:59:43.081Z,83.42
2023-03-11T23:02:14.110Z,83.43
2023-03-11T23:04:48.466Z,83.33
2023-03-11T23:07:19.314Z,83.22
2023-03-11T23:09:47.804Z,83.22
2023-03-11T23:12:16.151Z,83.22
2023-03-11T23:14:46.293Z,82.97
2023-03-11T23:17:17.456Z,83.09
2023-03-11T23:19:48.737Z,82.86
2023-03-11T23:22:19.860Z,82.87
2023-03-11T23:24:53.872Z,82.93
2023-03-11T23:27:28.688Z,82.79
2023-03-11T23:29:57.086Z,82.68
2023-03-11T23:33:07.515Z,82.61
2023-03-11T23:35:47.630Z,82.56
2023-03-11T23:38:23.629Z,82.49
2023-03-11T23:40:52.274Z,82.42
2023-03-11T23:43:42.914Z,82.60
2023-03-11T23:46:34.249Z,82.57
2023-03-11T23:49:05.605Z,82.52
2023-03-11T23:51:49.744Z,82.63
2023-03-11T23:54:21.003Z,82.73
2023-03-11T23:56:49.778Z,82.80
2023-03-11T23:59:33.605Z,82.96
